sensor_id;sensor_type;location;lat;lon;timestamp;temperature;humidity
11619;DHT22;5865;48.776;9.280;2023-04-02T00:02:26;8.30;99.90
11619;DHT22;5865;48.776;9.280;2023-04-02T00:08:00;8.20;99.90
11619;DHT22;5865;48.776;9.280;2023-04-02T00:10:30;8.20;99.90
11619;DHT22;5865;48.776;9.280;2023-04-02T00:13:04;8.10;99.90
11619;DHT22;5865;48.776;9.280;2023-04-02T00:15:32;8.10;99.90
11619;DHT22;5865;48.776;9.280;2023-04-02T00:18:00;8.00;99.90
11619;DHT22;5865;48.776;9.280;2023-04-02T00:20:27;8.00;99.90
11619;DHT22;5865;48.776;9.280;2023-04-02T00:22:56;8.10;99.90
11619;DHT22;5865;48.776;9.280;2023-04-02T00:25:25;8.10;99.90
11619;DHT22;5865;48.776;9.280;2023-04-02T00:27:53;8.00;99.90
11619;DHT22;5865;48.776;9.280;2023-04-02T00:30:22;8.00;99.90
11619;DHT22;5865;48.776;9.280;2023-04-02T00:32:50;8.00;99.90
11619;DHT22;5865;48.776;9.280;2023-04-02T00:35:21;8.00;99.90
11619;DHT22;5865;48.776;9.280;2023-04-02T00:37:48;8.00;99.90
11619;DHT22;5865;48.776;9.280;2023-04-02T00:40:21;8.00;99.90
11619;DHT22;5865;48.776;9.280;2023-04-02T00:42:49;7.90;99.90
11619;DHT22;5865;48.776;9.280;2023-04-02T00:45:23;7.90;99.90
11619;DHT22;5865;48.776;9.280;2023-04-02T00:47:54;7.90;99.90
11619;DHT22;5865;48.776;9.280;2023-04-02T00:50:26;7.90;99.90
11619;DHT22;5865;48.776;9.280;2023-04-02T00:52:56;7.90;99.90
11619;DHT22;5865;48.776;9.280;2023-04-02T00:55:26;7.90;99.90
11619;DHT22;5865;48.776;9.280;2023-04-02T00:57:59;7.90;99.90
11619;DHT22;5865;48.776;9.280;2023-04-02T01:00:29;8.00;99.90
11619;DHT22;5865;48.776;9.280;2023-04-02T01:03:31;8.00;99.90
11619;DHT22;5865;48.776;9.280;2023-04-02T01:06:05;8.00;99.90
11619;DHT22;5865;48.776;9.280;2023-04-02T01:08:51;8.00;99.90
11619;DHT22;5865;48.776;9.280;2023-04-02T01:11:40;8.00;99.90
11619;DHT22;5865;48.776;9.280;2023-04-02T01:14:14;8.00;99.90
11619;DHT22;5865;48.776;9.280;2023-04-02T01:16:50;8.00;99.90
11619;DHT22;5865;48.776;9.280;2023-04-02T01:19:43;8.00;99.90
11619;DHT22;5865;48.776;9.280;2023-04-02T01:22:20;7.90;99.90
11619;DHT22;5865;48.776;9.280;2023-04-02T01:27:20;8.00;99.90
11619;DHT22;5865;48.776;9.280;2023-04-02T01:29:53;8.00;99.90
11619;DHT22;5865;48.776;9.280;2023-04-02T01:32:23;8.00;99.90
11619;DHT22;5865;48.776;9.280;2023-04-02T01:34:51;8.00;99.90
11619;DHT22;5865;48.776;9.280;2023-04-02T01:37:30;8.00;99.90
11619;DHT22;5865;48.776;9.280;2023-04-02T01:40:13;8.00;99.90
11619;DHT22;5865;48.776;9.280;2023-04-02T01:42:50;8.00;99.90
11619;DHT22;5865;48.776;9.280;2023-04-02T01:45:21;8.00;99.90
11619;DHT22;5865;48.776;9.280;2023-04-02T01:50:25;8.00;99.90
11619;DHT22;5865;48.776;9.280;2023-04-02T01:52:58;8.00;99.90
11619;DHT22;5865;48.776;9.280;2023-04-02T01:55:33;8.10;99.90
11619;DHT22;5865;48.776;9.280;2023-04-02T02:00:33;8.10;99.90
11619;DHT22;5865;48.776;9.280;2023-04-02T02:03:03;8.00;99.90
11619;DHT22;5865;48.776;9.280;2023-04-02T02:08:01;8.00;99.90
11619;DHT22;5865;48.776;9.280;2023-04-02T02:10:33;8.00;99.90
11619;DHT22;5865;48.776;9.280;2023-04-02T02:18:01;8.00;99.90
11619;DHT22;5865;48.776;9.280;2023-04-02T02:20:31;8.00;99.90
11619;DHT22;5865;48.776;9.280;2023-04-02T02:23:00;8.00;99.90
11619;DHT22;5865;48.776;9.280;2023-04-02T02:25:31;8.00;99.90
11619;DHT22;5865;48.776;9.280;2023-04-02T02:28:02;8.00;99.90
11619;DHT22;5865;48.776;9.280;2023-04-02T02:30:33;8.00;99.90
11619;DHT22;5865;48.776;9.280;2023-04-02T02:33:06;8.00;99.90
11619;DHT22;5865;48.776;9.280;2023-04-02T02:35:39;8.10;99.90
11619;DHT22;5865;48.776;9.280;2023-04-02T02:38:34;8.10;99.90
11619;DHT22;5865;48.776;9.280;2023-04-02T02:41:16;8.10;99.90
11619;DHT22;5865;48.776;9.280;2023-04-02T02:43:56;8.20;99.90
11619;DHT22;5865;48.776;9.280;2023-04-02T02:46:26;8.10;99.90
11619;DHT22;5865;48.776;9.280;2023-04-02T02:48:57;8.10;99.90
11619;DHT22;5865;48.776;9.280;2023-04-02T02:51:28;8.00;99.90
11619;DHT22;5865;48.776;9.280;2023-04-02T02:54:01;8.00;99.90
11619;DHT22;5865;48.776;9.280;2023-04-02T02:56:31;7.90;99.90
11619;DHT22;5865;48.776;9.280;2023-04-02T02:59:02;7.90;99.90
11619;DHT22;5865;48.776;9.280;2023-04-02T03:01:36;8.00;99.90
11619;DHT22;5865;48.776;9.280;2023-04-02T03:04:05;8.00;99.90
11619;DHT22;5865;48.776;9.280;2023-04-02T03:06:32;7.90;99.90
11619;DHT22;5865;48.776;9.280;2023-04-02T03:09:09;7.90;99.90
11619;DHT22;5865;48.776;9.280;2023-04-02T03:11:41;7.90;99.90
11619;DHT22;5865;48.776;9.280;2023-04-02T03:14:19;7.90;99.90
11619;DHT22;5865;48.776;9.280;2023-04-02T03:16:52;7.90;99.90
11619;DHT22;5865;48.776;9.280;2023-04-02T03:19:29;7.90;99.90
11619;DHT22;5865;48.776;9.280;2023-04-02T03:22:04;7.90;99.90
11619;DHT22;5865;48.776;9.280;2023-04-02T03:24:40;7.90;99.90
11619;DHT22;5865;48.776;9.280;2023-04-02T03:27:16;7.90;99.90
11619;DHT22;5865;48.776;9.280;2023-04-02T03:29:57;7.90;99.90
11619;DHT22;5865;48.776;9.280;2023-04-02T03:35:04;7.90;99.90
11619;DHT22;5865;48.776;9.280;2023-04-02T03:37:39;7.90;99.90
11619;DHT22;5865;48.776;9.280;2023-04-02T03:40:15;7.90;99.90
11619;DHT22;5865;48.776;9.280;2023-04-02T03:42:46;7.90;99.90
11619;DHT22;5865;48.776;9.280;2023-04-02T03:45:17;8.00;99.90
11619;DHT22;5865;48.776;9.280;2023-04-02T03:47:50;7.90;99.90
11619;DHT22;5865;48.776;9.280;2023-04-02T03:50:26;7.90;99.90
11619;DHT22;5865;48.776;9.280;2023-04-02T03:52:58;7.90;99.90
11619;DHT22;5865;48.776;9.280;2023-04-02T03:55:29;8.00;99.90
11619;DHT22;5865;48.776;9.280;2023-04-02T03:58:00;7.90;99.90
11619;DHT22;5865;48.776;9.280;2023-04-02T04:00:34;8.00;99.90
11619;DHT22;5865;48.776;9.280;2023-04-02T04:03:09;7.90;99.90
11619;DHT22;5865;48.776;9.280;2023-04-02T04:05:47;8.00;99.90
11619;DHT22;5865;48.776;9.280;2023-04-02T04:08:17;7.90;99.90
11619;DHT22;5865;48.776;9.280;2023-04-02T04:10:50;7.90;99.90
11619;DHT22;5865;48.776;9.280;2023-04-02T04:13:21;7.90;99.90
11619;DHT22;5865;48.776;9.280;2023-04-02T04:15:56;8.00;99.90
11619;DHT22;5865;48.776;9.280;2023-04-02T04:18:31;8.00;99.90
11619;DHT22;5865;48.776;9.280;2023-04-02T04:23:48;8.10;99.90
11619;DHT22;5865;48.776;9.280;2023-04-02T04:26:23;8.10;99.90
11619;DHT22;5865;48.776;9.280;2023-04-02T04:29:02;8.20;99.90
11619;DHT22;5865;48.776;9.280;2023-04-02T04:31:39;8.30;99.90
11619;DHT22;5865;48.776;9.280;2023-04-02T04:34:13;8.20;99.90
11619;DHT22;5865;48.776;9.280;2023-04-02T04:36:48;8.20;99.90
11619;DHT22;5865;48.776;9.280;2023-04-02T04:39:29;8.20;99.90
11619;DHT22;5865;48.776;9.280;2023-04-02T04:42:00;8.40;99.90
11619;DHT22;5865;48.776;9.280;2023-04-02T04:44:38;8.30;99.90
11619;DHT22;5865;48.776;9.280;2023-04-02T04:47:09;8.30;99.90
11619;DHT22;5865;48.776;9.280;2023-04-02T04:49:42;8.20;99.90
11619;DHT22;5865;48.776;9.280;2023-04-02T04:52:19;8.30;99.90
11619;DHT22;5865;48.776;9.280;2023-04-02T04:54:47;8.30;99.90
11619;DHT22;5865;48.776;9.280;2023-04-02T04:57:26;8.20;99.90
11619;DHT22;5865;48.776;9.280;2023-04-02T05:00:01;8.20;99.90
11619;DHT22;5865;48.776;9.280;2023-04-02T05:05:15;8.30;99.90
11619;DHT22;5865;48.776;9.280;2023-04-02T05:07:49;8.30;99.90
11619;DHT22;5865;48.776;9.280;2023-04-02T05:10:22;8.10;99.90
11619;DHT22;5865;48.776;9.280;2023-04-02T05:12:58;8.10;99.90
11619;DHT22;5865;48.776;9.280;2023-04-02T05:15:31;8.00;99.90
11619;DHT22;5865;48.776;9.280;2023-04-02T05:18:15;8.00;99.90
11619;DHT22;5865;48.776;9.280;2023-04-02T05:20:49;8.10;99.90
11619;DHT22;5865;48.776;9.280;2023-04-02T05:23:24;8.00;99.90
11619;DHT22;5865;48.776;9.280;2023-04-02T05:25:56;8.00;99.90
11619;DHT22;5865;48.776;9.280;2023-04-02T05:28:30;8.00;99.90
11619;DHT22;5865;48.776;9.280;2023-04-02T05:31:02;8.00;99.90
11619;DHT22;5865;48.776;9.280;2023-04-02T05:33:33;8.60;99.90
11619;DHT22;5865;48.776;9.280;2023-04-02T05:36:08;8.00;99.90
11619;DHT22;5865;48.776;9.280;2023-04-02T05:38:45;8.10;99.90
11619;DHT22;5865;48.776;9.280;2023-04-02T05:41:23;8.10;99.90
11619;DHT22;5865;48.776;9.280;2023-04-02T05:44:04;8.20;99.90
11619;DHT22;5865;48.776;9.280;2023-04-02T05:46:34;8.20;99.90
11619;DHT22;5865;48.776;9.280;2023-04-02T05:49:07;8.20;99.90
11619;DHT22;5865;48.776;9.280;2023-04-02T05:51:41;8.30;99.90
11619;DHT22;5865;48.776;9.280;2023-04-02T05:54:21;8.40;99.90
11619;DHT22;5865;48.776;9.280;2023-04-02T05:56:56;8.50;99.90
11619;DHT22;5865;48.776;9.280;2023-04-02T05:59:30;8.50;99.90
11619;DHT22;5865;48.776;9.280;2023-04-02T06:01:59;8.60;99.90
11619;DHT22;5865;48.776;9.280;2023-04-02T06:04:35;8.60;99.90
11619;DHT22;5865;48.776;9.280;2023-04-02T06:12:24;8.70;99.90
11619;DHT22;5865;48.776;9.280;2023-04-02T06:14:53;8.70;99.90
11619;DHT22;5865;48.776;9.280;2023-04-02T06:17:21;8.80;99.90
11619;DHT22;5865;48.776;9.280;2023-04-02T06:19:50;8.90;99.90
11619;DHT22;5865;48.776;9.280;2023-04-02T06:22:23;8.90;99.90
11619;DHT22;5865;48.776;9.280;2023-04-02T06:25:02;9.00;99.90
11619;DHT22;5865;48.776;9.280;2023-04-02T06:27:37;9.10;99.90
11619;DHT22;5865;48.776;9.280;2023-04-02T06:37:44;9.20;99.90
11619;DHT22;5865;48.776;9.280;2023-04-02T06:40:31;9.20;99.90
11619;DHT22;5865;48.776;9.280;2023-04-02T06:43:19;9.20;99.90
11619;DHT22;5865;48.776;9.280;2023-04-02T06:46:07;9.30;99.90
11619;DHT22;5865;48.776;9.280;2023-04-02T06:48:58;9.40;99.90
11619;DHT22;5865;48.776;9.280;2023-04-02T06:51:28;9.30;99.90
11619;DHT22;5865;48.776;9.280;2023-04-02T06:56:35;9.50;99.90
11619;DHT22;5865;48.776;9.280;2023-04-02T06:59:04;9.50;99.90
11619;DHT22;5865;48.776;9.280;2023-04-02T07:01:36;9.50;99.90
11619;DHT22;5865;48.776;9.280;2023-04-02T09:23:22;12.60;99.90
11619;DHT22;5865;48.776;9.280;2023-04-02T09:25:52;13.10;99.90
11619;DHT22;5865;48.776;9.280;2023-04-02T09:31:04;13.10;99.90
11619;DHT22;5865;48.776;9.280;2023-04-02T09:36:18;13.70;99.90
11619;DHT22;5865;48.776;9.280;2023-04-02T09:39:02;14.00;99.90
11619;DHT22;5865;48.776;9.280;2023-04-02T09:41:32;14.20;99.90
11619;DHT22;5865;48.776;9.280;2023-04-02T09:44:22;14.20;99.90
11619;DHT22;5865;48.776;9.280;2023-04-02T09:46:53;14.80;99.90
11619;DHT22;5865;48.776;9.280;2023-04-02T09:52:06;15.10;99.90
11619;DHT22;5865;48.776;9.280;2023-04-02T09:59:46;15.30;99.90
11619;DHT22;5865;48.776;9.280;2023-04-02T10:02:23;15.70;99.90
11619;DHT22;5865;48.776;9.280;2023-04-02T10:04:51;16.00;99.90
11619;DHT22;5865;48.776;9.280;2023-04-02T10:07:32;15.70;99.90
11619;DHT22;5865;48.776;9.280;2023-04-02T10:10:12;15.80;99.90
11619;DHT22;5865;48.776;9.280;2023-04-02T10:12:46;15.70;99.90
11619;DHT22;5865;48.776;9.280;2023-04-02T10:15:24;15.20;99.90
11619;DHT22;5865;48.776;9.280;2023-04-02T10:22:54;14.90;99.90
11619;DHT22;5865;48.776;9.280;2023-04-02T10:25:27;15.00;99.90
11619;DHT22;5865;48.776;9.280;2023-04-02T10:28:00;15.10;99.90
11619;DHT22;5865;48.776;9.280;2023-04-02T10:30:50;14.90;99.90
11619;DHT22;5865;48.776;9.280;2023-04-02T10:33:25;14.30;99.90
11619;DHT22;5865;48.776;9.280;2023-04-02T10:35:59;14.00;99.90
11619;DHT22;5865;48.776;9.280;2023-04-02T10:38:40;13.90;99.90
11619;DHT22;5865;48.776;9.280;2023-04-02T10:41:21;14.10;99.90
11619;DHT22;5865;48.776;9.280;2023-04-02T10:44:15;14.00;99.90
11619;DHT22;5865;48.776;9.280;2023-04-02T10:46:50;13.70;99.90
11619;DHT22;5865;48.776;9.280;2023-04-02T10:49:26;13.70;99.90
11619;DHT22;5865;48.776;9.280;2023-04-02T10:51:58;13.30;99.90
11619;DHT22;5865;48.776;9.280;2023-04-02T10:54:42;12.80;99.90
11619;DHT22;5865;48.776;9.280;2023-04-02T10:57:32;13.30;99.90
11619;DHT22;5865;48.776;9.280;2023-04-02T11:02:38;13.50;99.90
11619;DHT22;5865;48.776;9.280;2023-04-02T11:05:18;13.50;99.90
11619;DHT22;5865;48.776;9.280;2023-04-02T11:07:59;13.40;99.90
11619;DHT22;5865;48.776;9.280;2023-04-02T11:10:31;13.40;99.90
11619;DHT22;5865;48.776;9.280;2023-04-02T11:13:05;13.70;99.90
11619;DHT22;5865;48.776;9.280;2023-04-02T11:18:05;13.60;99.90
11619;DHT22;5865;48.776;9.280;2023-04-02T11:23:35;13.10;99.90
11619;DHT22;5865;48.776;9.280;2023-04-02T11:29:24;13.10;99.90
11619;DHT22;5865;48.776;9.280;2023-04-02T11:40:43;13.10;99.90
11619;DHT22;5865;48.776;9.280;2023-04-02T11:43:49;12.90;99.90
11619;DHT22;5865;48.776;9.280;2023-04-02T11:46:39;12.90;99.90
11619;DHT22;5865;48.776;9.280;2023-04-02T11:49:38;12.90;99.90
11619;DHT22;5865;48.776;9.280;2023-04-02T11:52:26;12.80;99.90
11619;DHT22;5865;48.776;9.280;2023-04-02T11:54:57;12.90;99.90
11619;DHT22;5865;48.776;9.280;2023-04-02T11:57:46;13.10;99.90
11619;DHT22;5865;48.776;9.280;2023-04-02T12:00:30;13.10;99.90
11619;DHT22;5865;48.776;9.280;2023-04-02T12:03:35;13.20;99.90
11619;DHT22;5865;48.776;9.280;2023-04-02T12:06:11;13.30;99.90
11619;DHT22;5865;48.776;9.280;2023-04-02T12:08:52;13.30;99.90
11619;DHT22;5865;48.776;9.280;2023-04-02T12:11:30;13.80;99.90
11619;DHT22;5865;48.776;9.280;2023-04-02T12:13:59;13.80;99.90
11619;DHT22;5865;48.776;9.280;2023-04-02T12:18:58;13.70;99.90
11619;DHT22;5865;48.776;9.280;2023-04-02T12:21:28;13.70;99.90
11619;DHT22;5865;48.776;9.280;2023-04-02T12:23:57;14.10;99.90
11619;DHT22;5865;48.776;9.280;2023-04-02T12:26:30;14.40;99.90
11619;DHT22;5865;48.776;9.280;2023-04-02T12:29:24;14.30;99.90
11619;DHT22;5865;48.776;9.280;2023-04-02T12:31:53;14.30;99.90
11619;DHT22;5865;48.776;9.280;2023-04-02T12:34:23;13.80;99.90
11619;DHT22;5865;48.776;9.280;2023-04-02T12:36:55;13.90;99.90
11619;DHT22;5865;48.776;9.280;2023-04-02T12:39:24;13.70;99.90
11619;DHT22;5865;48.776;9.280;2023-04-02T12:41:51;13.70;99.90
11619;DHT22;5865;48.776;9.280;2023-04-02T12:44:20;13.90;99.90
11619;DHT22;5865;48.776;9.280;2023-04-02T12:46:49;14.00;99.90
11619;DHT22;5865;48.776;9.280;2023-04-02T12:49:30;13.50;99.90
11619;DHT22;5865;48.776;9.280;2023-04-02T12:52:01;13.50;99.90
11619;DHT22;5865;48.776;9.280;2023-04-02T12:54:32;13.60;99.90
11619;DHT22;5865;48.776;9.280;2023-04-02T12:57:27;13.30;99.90
11619;DHT22;5865;48.776;9.280;2023-04-02T12:59:58;13.10;99.90
11619;DHT22;5865;48.776;9.280;2023-04-02T13:02:27;13.10;99.90
11619;DHT22;5865;48.776;9.280;2023-04-02T13:04:57;13.20;99.90
11619;DHT22;5865;48.776;9.280;2023-04-02T13:07:27;12.50;99.90
11619;DHT22;5865;48.776;9.280;2023-04-02T13:09:57;12.20;99.90
11619;DHT22;5865;48.776;9.280;2023-04-02T13:14:54;12.00;99.90
11619;DHT22;5865;48.776;9.280;2023-04-02T13:17:42;11.80;99.90
11619;DHT22;5865;48.776;9.280;2023-04-02T13:20:31;11.80;99.90
11619;DHT22;5865;48.776;9.280;2023-04-02T13:23:00;11.60;99.90
11619;DHT22;5865;48.776;9.280;2023-04-02T13:25:29;11.60;99.90
11619;DHT22;5865;48.776;9.280;2023-04-02T13:27:57;11.60;99.90
11619;DHT22;5865;48.776;9.280;2023-04-02T13:30:26;11.30;99.90
11619;DHT22;5865;48.776;9.280;2023-04-02T13:32:54;11.20;99.90
11619;DHT22;5865;48.776;9.280;2023-04-02T13:35:21;11.30;99.90
11619;DHT22;5865;48.776;9.280;2023-04-02T13:37:50;11.30;99.90
11619;DHT22;5865;48.776;9.280;2023-04-02T13:40:17;11.40;99.90
11619;DHT22;5865;48.776;9.280;2023-04-02T13:42:45;11.30;99.90
11619;DHT22;5865;48.776;9.280;2023-04-02T13:45:21;11.60;99.90
11619;DHT22;5865;48.776;9.280;2023-04-02T13:47:48;11.60;99.90
11619;DHT22;5865;48.776;9.280;2023-04-02T13:50:16;11.70;99.90
11619;DHT22;5865;48.776;9.280;2023-04-02T13:52:44;11.70;99.90
11619;DHT22;5865;48.776;9.280;2023-04-02T13:57:41;11.60;99.90
11619;DHT22;5865;48.776;9.280;2023-04-02T14:00:09;11.60;99.90
11619;DHT22;5865;48.776;9.280;2023-04-02T14:02:40;11.70;99.90
11619;DHT22;5865;48.776;9.280;2023-04-02T14:05:17;11.50;99.90
11619;DHT22;5865;48.776;9.280;2023-04-02T14:07:59;11.40;99.90
11619;DHT22;5865;48.776;9.280;2023-04-02T14:10:42;11.30;99.90
11619;DHT22;5865;48.776;9.280;2023-04-02T14:13:26;11.20;99.90
11619;DHT22;5865;48.776;9.280;2023-04-02T14:16:13;10.60;99.90
11619;DHT22;5865;48.776;9.280;2023-04-02T14:19:01;10.70;99.90
11619;DHT22;5865;48.776;9.280;2023-04-02T14:21:39;10.40;99.90
11619;DHT22;5865;48.776;9.280;2023-04-02T14:24:16;10.30;99.90
11619;DHT22;5865;48.776;9.280;2023-04-02T14:26:54;10.30;99.90
11619;DHT22;5865;48.776;9.280;2023-04-02T14:29:27;10.40;99.90
11619;DHT22;5865;48.776;9.280;2023-04-02T14:32:03;10.40;99.90
11619;DHT22;5865;48.776;9.280;2023-04-02T14:34:37;10.30;99.90
11619;DHT22;5865;48.776;9.280;2023-04-02T14:37:12;10.30;99.90
11619;DHT22;5865;48.776;9.280;2023-04-02T14:39:49;10.20;99.90
11619;DHT22;5865;48.776;9.280;2023-04-02T14:42:23;10.20;99.90
11619;DHT22;5865;48.776;9.280;2023-04-02T14:47:30;10.40;99.90
11619;DHT22;5865;48.776;9.280;2023-04-02T14:50:04;10.50;99.90
11619;DHT22;5865;48.776;9.280;2023-04-02T14:52:34;10.50;99.90
11619;DHT22;5865;48.776;9.280;2023-04-02T14:55:04;10.50;99.90
11619;DHT22;5865;48.776;9.280;2023-04-02T14:57:36;10.40;99.90
11619;DHT22;5865;48.776;9.280;2023-04-02T15:00:06;10.40;99.90
11619;DHT22;5865;48.776;9.280;2023-04-02T15:02:40;10.40;99.90
11619;DHT22;5865;48.776;9.280;2023-04-02T15:07:44;10.30;99.90
11619;DHT22;5865;48.776;9.280;2023-04-02T15:10:19;10.30;99.90
11619;DHT22;5865;48.776;9.280;2023-04-02T15:12:49;10.40;99.90
11619;DHT22;5865;48.776;9.280;2023-04-02T15:15:23;10.40;99.90
11619;DHT22;5865;48.776;9.280;2023-04-02T15:17:52;10.40;99.90
11619;DHT22;5865;48.776;9.280;2023-04-02T15:20:20;10.20;99.90
11619;DHT22;5865;48.776;9.280;2023-04-02T15:22:57;10.20;99.90
11619;DHT22;5865;48.776;9.280;2023-04-02T15:25:32;10.20;99.90
11619;DHT22;5865;48.776;9.280;2023-04-02T15:28:16;10.20;99.90
11619;DHT22;5865;48.776;9.280;2023-04-02T15:30:49;10.00;99.90
11619;DHT22;5865;48.776;9.280;2023-04-02T15:33:29;9.70;99.90
11619;DHT22;5865;48.776;9.280;2023-04-02T15:41:05;9.40;99.90
11619;DHT22;5865;48.776;9.280;2023-04-02T15:43:39;9.40;99.90
11619;DHT22;5865;48.776;9.280;2023-04-02T15:46:14;9.20;99.90
11619;DHT22;5865;48.776;9.280;2023-04-02T15:48:59;9.20;99.90
11619;DHT22;5865;48.776;9.280;2023-04-02T15:51:36;9.20;99.90
11619;DHT22;5865;48.776;9.280;2023-04-02T15:54:25;8.90;99.90
11619;DHT22;5865;48.776;9.280;2023-04-02T16:03:35;9.00;99.90
11619;DHT22;5865;48.776;9.280;2023-04-02T16:06:25;9.10;99.90
11619;DHT22;5865;48.776;9.280;2023-04-02T16:08:58;9.10;99.90
11619;DHT22;5865;48.776;9.280;2023-04-02T16:11:26;9.30;99.90
11619;DHT22;5865;48.776;9.280;2023-04-02T16:14:00;9.30;99.90
11619;DHT22;5865;48.776;9.280;2023-04-02T16:16:30;9.20;99.90
11619;DHT22;5865;48.776;9.280;2023-04-02T16:19:06;9.20;99.90
11619;DHT22;5865;48.776;9.280;2023-04-02T16:21:42;9.20;99.90
11619;DHT22;5865;48.776;9.280;2023-04-02T16:24:12;9.10;99.90
11619;DHT22;5865;48.776;9.280;2023-04-02T16:26:47;9.00;99.90
11619;DHT22;5865;48.776;9.280;2023-04-02T16:29:41;9.00;99.90
11619;DHT22;5865;48.776;9.280;2023-04-02T16:32:28;8.80;99.90
11619;DHT22;5865;48.776;9.280;2023-04-02T16:35:13;8.70;99.90
11619;DHT22;5865;48.776;9.280;2023-04-02T16:37:48;8.70;99.90
11619;DHT22;5865;48.776;9.280;2023-04-02T16:40:26;8.60;99.90
11619;DHT22;5865;48.776;9.280;2023-04-02T16:42:59;8.40;99.90
11619;DHT22;5865;48.776;9.280;2023-04-02T16:48:07;8.40;99.90
11619;DHT22;5865;48.776;9.280;2023-04-02T16:53:23;8.40;99.90
11619;DHT22;5865;48.776;9.280;2023-04-02T16:56:12;8.30;99.90
11619;DHT22;5865;48.776;9.280;2023-04-02T16:58:49;8.30;99.90
11619;DHT22;5865;48.776;9.280;2023-04-02T17:01:24;8.30;99.90
11619;DHT22;5865;48.776;9.280;2023-04-02T17:04:04;8.30;99.90
11619;DHT22;5865;48.776;9.280;2023-04-02T17:06:39;8.20;99.90
11619;DHT22;5865;48.776;9.280;2023-04-02T17:09:15;8.30;99.90
11619;DHT22;5865;48.776;9.280;2023-04-02T17:11:47;8.10;99.90
11619;DHT22;5865;48.776;9.280;2023-04-02T17:14:45;8.10;99.90
11619;DHT22;5865;48.776;9.280;2023-04-02T17:17:16;8.10;99.90
11619;DHT22;5865;48.776;9.280;2023-04-02T17:19:43;8.10;99.90
11619;DHT22;5865;48.776;9.280;2023-04-02T17:22:16;8.00;99.90
11619;DHT22;5865;48.776;9.280;2023-04-02T17:24:46;8.00;99.90
11619;DHT22;5865;48.776;9.280;2023-04-02T17:27:21;7.90;99.90
11619;DHT22;5865;48.776;9.280;2023-04-02T17:29:51;7.90;99.90
11619;DHT22;5865;48.776;9.280;2023-04-02T17:32:22;7.90;99.90
11619;DHT22;5865;48.776;9.280;2023-04-02T17:34:51;7.80;99.90
11619;DHT22;5865;48.776;9.280;2023-04-02T17:37:25;7.70;99.90
11619;DHT22;5865;48.776;9.280;2023-04-02T17:40:06;7.70;99.90
11619;DHT22;5865;48.776;9.280;2023-04-02T17:42:43;7.50;99.90
11619;DHT22;5865;48.776;9.280;2023-04-02T17:45:16;7.30;99.90
11619;DHT22;5865;48.776;9.280;2023-04-02T17:47:53;7.30;99.90
11619;DHT22;5865;48.776;9.280;2023-04-02T17:50:44;7.30;99.90
11619;DHT22;5865;48.776;9.280;2023-04-02T17:53:31;7.20;99.90
11619;DHT22;5865;48.776;9.280;2023-04-02T17:56:13;7.10;99.90
11619;DHT22;5865;48.776;9.280;2023-04-02T17:59:22;7.10;99.90
11619;DHT22;5865;48.776;9.280;2023-04-02T18:01:57;7.00;99.90
11619;DHT22;5865;48.776;9.280;2023-04-02T18:04:37;6.90;99.90
11619;DHT22;5865;48.776;9.280;2023-04-02T18:07:22;6.80;99.90
11619;DHT22;5865;48.776;9.280;2023-04-02T18:10:00;6.80;99.90
11619;DHT22;5865;48.776;9.280;2023-04-02T18:12:42;6.70;99.90
11619;DHT22;5865;48.776;9.280;2023-04-02T18:15:42;6.60;99.90
11619;DHT22;5865;48.776;9.280;2023-04-02T18:18:23;6.60;99.90
11619;DHT22;5865;48.776;9.280;2023-04-02T18:20:59;6.60;99.90
11619;DHT22;5865;48.776;9.280;2023-04-02T18:23:39;6.60;99.90
11619;DHT22;5865;48.776;9.280;2023-04-02T18:26:13;6.60;99.90
11619;DHT22;5865;48.776;9.280;2023-04-02T18:28:51;6.50;99.90
11619;DHT22;5865;48.776;9.280;2023-04-02T18:31:31;6.50;99.90
11619;DHT22;5865;48.776;9.280;2023-04-02T18:34:11;6.50;99.90
11619;DHT22;5865;48.776;9.280;2023-04-02T18:39:22;6.40;99.90
11619;DHT22;5865;48.776;9.280;2023-04-02T18:42:00;6.20;99.90
11619;DHT22;5865;48.776;9.280;2023-04-02T18:44:41;6.10;99.90
11619;DHT22;5865;48.776;9.280;2023-04-02T18:47:18;6.00;99.90
11619;DHT22;5865;48.776;9.280;2023-04-02T18:49:52;6.00;99.90
11619;DHT22;5865;48.776;9.280;2023-04-02T18:52:23;5.90;99.90
11619;DHT22;5865;48.776;9.280;2023-04-02T18:54:54;5.90;99.90
11619;DHT22;5865;48.776;9.280;2023-04-02T18:57:27;5.90;99.90
11619;DHT22;5865;48.776;9.280;2023-04-02T18:59:58;5.80;99.90
11619;DHT22;5865;48.776;9.280;2023-04-02T19:02:39;5.70;99.90
11619;DHT22;5865;48.776;9.280;2023-04-02T19:07:42;5.60;99.90
11619;DHT22;5865;48.776;9.280;2023-04-02T19:10:22;5.60;99.90
11619;DHT22;5865;48.776;9.280;2023-04-02T19:12:53;5.50;99.90
11619;DHT22;5865;48.776;9.280;2023-04-02T19:15:20;5.40;99.90
11619;DHT22;5865;48.776;9.280;2023-04-02T19:17:56;5.40;99.90
11619;DHT22;5865;48.776;9.280;2023-04-02T19:20:31;5.30;99.90
11619;DHT22;5865;48.776;9.280;2023-04-02T19:23:10;5.30;99.90
11619;DHT22;5865;48.776;9.280;2023-04-02T19:25:50;5.20;99.90
11619;DHT22;5865;48.776;9.280;2023-04-02T19:28:29;5.20;99.90
11619;DHT22;5865;48.776;9.280;2023-04-02T19:31:08;5.10;99.90
11619;DHT22;5865;48.776;9.280;2023-04-02T19:33:47;5.10;99.90
11619;DHT22;5865;48.776;9.280;2023-04-02T19:36:39;5.00;99.90
11619;DHT22;5865;48.776;9.280;2023-04-02T19:39:35;5.00;99.90
11619;DHT22;5865;48.776;9.280;2023-04-02T19:42:10;5.00;99.90
11619;DHT22;5865;48.776;9.280;2023-04-02T19:44:44;5.00;99.90
11619;DHT22;5865;48.776;9.280;2023-04-02T19:47:12;5.00;99.90
11619;DHT22;5865;48.776;9.280;2023-04-02T19:52:07;4.90;99.90
11619;DHT22;5865;48.776;9.280;2023-04-02T19:54:35;4.90;99.90
11619;DHT22;5865;48.776;9.280;2023-04-02T19:57:04;4.80;99.90
11619;DHT22;5865;48.776;9.280;2023-04-02T20:01:59;4.80;99.90
11619;DHT22;5865;48.776;9.280;2023-04-02T20:04:31;4.70;99.90
11619;DHT22;5865;48.776;9.280;2023-04-02T20:06:58;4.70;99.90
11619;DHT22;5865;48.776;9.280;2023-04-02T20:09:25;4.70;99.90
11619;DHT22;5865;48.776;9.280;2023-04-02T20:11:53;4.60;99.90
11619;DHT22;5865;48.776;9.280;2023-04-02T20:14:20;4.60;99.90
11619;DHT22;5865;48.776;9.280;2023-04-02T20:16:48;4.60;99.90
11619;DHT22;5865;48.776;9.280;2023-04-02T20:19:17;4.60;99.90
11619;DHT22;5865;48.776;9.280;2023-04-02T20:21:44;4.60;99.90
11619;DHT22;5865;48.776;9.280;2023-04-02T20:24:11;4.60;99.90
11619;DHT22;5865;48.776;9.280;2023-04-02T20:29:07;4.50;99.90
11619;DHT22;5865;48.776;9.280;2023-04-02T20:31:34;4.60;99.90
11619;DHT22;5865;48.776;9.280;2023-04-02T20:34:01;4.50;99.90
11619;DHT22;5865;48.776;9.280;2023-04-02T20:36:32;4.50;99.90
11619;DHT22;5865;48.776;9.280;2023-04-02T20:38:59;4.50;99.90
11619;DHT22;5865;48.776;9.280;2023-04-02T20:41:27;4.50;99.90
11619;DHT22;5865;48.776;9.280;2023-04-02T20:43:57;4.50;99.90
11619;DHT22;5865;48.776;9.280;2023-04-02T20:46:24;4.40;99.90
11619;DHT22;5865;48.776;9.280;2023-04-02T20:48:51;4.40;99.90
11619;DHT22;5865;48.776;9.280;2023-04-02T20:51:18;4.40;99.90
11619;DHT22;5865;48.776;9.280;2023-04-02T20:53:47;4.40;99.90
11619;DHT22;5865;48.776;9.280;2023-04-02T20:56:16;4.40;99.90
11619;DHT22;5865;48.776;9.280;2023-04-02T20:58:44;4.40;99.90
11619;DHT22;5865;48.776;9.280;2023-04-02T21:01:15;4.40;99.90
11619;DHT22;5865;48.776;9.280;2023-04-02T21:03:43;4.40;99.90
11619;DHT22;5865;48.776;9.280;2023-04-02T21:06:15;4.30;99.90
11619;DHT22;5865;48.776;9.280;2023-04-02T21:11:57;4.30;99.90